Washington, PA

6:56 AM EST on December 26, 2014 (GMT -0500)
Cameron Estates/South Strabane | Change Station
CLOSE
Current Station
Personal Weather Station
Location: Washington, PA
Elevation: 1184 ft
Nearby Weather Stations

Elev 1184 ft 40.18 °N, 80.21 °W | Updated 10 minutes ago

Partly Cloudy
Partly Cloudy
26.7 °F
Feels Like 27 °F
N
0.0
Wind Variable Wind from SSW

Today
High -- | Low -- °F
--% Chance of Precip.
Yesterday
High -- | Low -- °F
Precip. -- in
7:41 AM 5:01 PM
Waxing Crescent, 25% visible
Pressure 30.30 in
Visibility 10.0 miles
Clouds Mostly Cloudy 2300 ft
Windchill 27 °F
Dew Point 25 °F
Humidity 93%
Rainfall 0.00 in
Snow Depth Not available.
UV 0 out of 12
Pollen .10 out of 12
Air Quality Not available.
Flu Activity Not available.
METAR KAGC 261153Z 17006KT 10SM BKN023 00/M04 A3025 RMK AO2 SLP260 70002 T00001039 10028 20000 51009

More Conditions Fewer Conditions

Pressure 30.30 in
Visibility 10.0 miles
Clouds Mostly Cloudy 2300 ft
Windchill 27 °F
Dew Point 25 °F
Humidity 93%
Rainfall 0.00 in
Snow Depth Not available.
UV 0 out of 12
Pollen .10 out of 12
Air Quality Not available.
Flu Activity Not available.
METAR KAGC 261153Z 17006KT 10SM BKN023 00/M04 A3025 RMK AO2 SLP260 70002 T00001039 10028 20000 51009

More Conditions Fewer Conditions

10-Day Weather Forecast

Almanac

Astronomy

Dec. 26, 2014 Rise Set
Actual Time
Civil Twilight
Nautical Twilight
Astronomical Twilight
Moon
Length of Visible Light
Length of Day
Tomorrow will be .
, % of the Moon is Illuminated

Today's Extremes

State Highs State Lows

Community

WunderPhotos

Upload Photos

1,780,580 photos uploaded!

WunderBlogs® & News

Nearby

Air Quality

  Air Quality AQ Index Pollutant
Not available.

Snow Depth

Station Depth Elevation

Earthquake Activity

City Distance Mag. Time & Date
Minimum magnitude displayed is 2.5.

Coastal Water Temperatures

Place Temperature

Nearby Weather Stations